Time;durP1;ratioP1;P1;durP2;ratioP2;P2;SDS_P1;SDS_P2;PMS_P1;PMS_P2;Temp;Humidity;BMP_temperature;BMP_pressure;BME280_temperature;BME280_humidity;BME280_pressure;Samples;Min_cycle;Max_cycle;Signal;HPM_P1;HPM_P2
2020/12/06 01:42:51;;;;;;;34.73;24.27;;;;;;;;;;5053784;28;20490;-71
2020/12/06 01:45:16;;;;;;;29.00;21.40;;;;;;;;;;5057411;28;20511;-72
2020/12/06 01:47:41;;;;;;;28.48;23.33;;;;;;;;;;5057557;28;20220;-71
2020/12/06 01:50:07;;;;;;;27.87;21.70;;;;;;;;;;5057479;28;20422;-71
2020/12/06 01:52:32;;;;;;;25.97;20.80;;;;;;;;;;5058819;28;20276;-71
2020/12/06 01:54:58;;;;;;;26.47;22.60;;;;;;;;;;5077781;28;20501;-72
2020/12/06 01:57:23;;;;;;;25.10;21.20;;;;;;;;;;5077627;28;20538;-74
2020/12/06 01:59:48;;;;;;;27.00;21.57;;;;;;;;;;5077551;28;20207;-71
2020/12/06 02:20:30;;;;;;;32.03;22.80;;;;;;;;;;5077031;28;20833;-73
2020/12/06 02:22:55;;;;;;;26.77;20.83;;;;;;;;;;5076538;28;20416;-73
2020/12/06 02:25:20;;;;;;;24.70;19.08;;;;;;;;;;5057393;28;20518;-73
2020/12/06 02:27:46;;;;;;;26.10;20.10;;;;;;;;;;5046106;28;20186;-73
2020/12/06 02:30:12;;;;;;;28.47;22.00;;;;;;;;;;5037264;28;20190;-71
2020/12/06 02:32:37;;;;;;;29.50;21.70;;;;;;;;;;5037102;28;20171;-73
2020/12/06 02:35:03;;;;;;;30.27;23.90;;;;;;;;;;5038429;28;20378;-73
2020/12/06 02:52:42;;;;;;;26.30;21.13;;;;;;;;;;5057585;28;20442;-72
2020/12/06 02:55:07;;;;;;;29.30;21.70;;;;;;;;;;5061065;28;20415;-71
2020/12/06 02:57:32;;;;;;;24.13;19.80;;;;;;;;;;5061063;28;20180;-70
2020/12/06 02:59:58;;;;;;;26.23;20.85;;;;;;;;;;5062692;28;20216;-72
2020/12/06 03:02:23;;;;;;;26.00;20.70;;;;;;;;;;5061162;28;20158;-71
2020/12/06 03:04:48;;;;;;;26.33;21.00;;;;;;;;;;5062465;28;20551;-72
2020/12/06 03:07:14;;;;;;;27.23;20.10;;;;;;;;;;5079268;28;20168;-71
2020/12/06 03:09:39;;;;;;;28.93;20.57;;;;;;;;;;5080358;28;20215;-71
2020/12/06 03:12:04;;;;;;;27.57;21.13;;;;;;;;;;5080172;28;20438;-70
2020/12/06 03:14:30;;;;;;;24.60;20.20;;;;;;;;;;5080728;28;20184;-68
2020/12/06 03:16:55;;;;;;;24.47;21.10;;;;;;;;;;5080386;28;20177;-72
2020/12/06 03:19:20;;;;;;;26.03;21.93;;;;;;;;;;5079808;28;20181;-69
2020/12/06 03:21:45;;;;;;;28.92;20.63;;;;;;;;;;5080596;28;20421;-69
2020/12/06 03:24:10;;;;;;;25.10;19.40;;;;;;;;;;5080121;28;20176;-72
2020/12/06 03:26:35;;;;;;;28.87;21.13;;;;;;;;;;5078518;28;20168;-70
2020/12/06 03:29:01;;;;;;;28.80;20.63;;;;;;;;;;5060200;28;20578;-70
2020/12/06 03:31:26;;;;;;;27.77;20.93;;;;;;;;;;5059957;28;20162;-70
2020/12/06 03:33:51;;;;;;;27.38;20.50;;;;;;;;;;5060023;28;20181;-70
2020/12/06 03:36:16;;;;;;;25.50;20.10;;;;;;;;;;5070710;28;20203;-72
2020/12/06 03:38:41;;;;;;;30.00;21.80;;;;;;;;;;5079567;28;20202;-71
2020/12/06 03:41:06;;;;;;;25.90;20.00;;;;;;;;;;5079941;28;20202;-73
2020/12/06 03:43:31;;;;;;;24.67;20.80;;;;;;;;;;5080463;28;20164;-69
2020/12/06 03:45:57;;;;;;;26.70;19.60;;;;;;;;;;5079596;28;20188;-70
2020/12/06 03:48:22;;;;;;;27.98;21.30;;;;;;;;;;5079707;28;20192;-69
2020/12/06 03:50:47;;;;;;;28.37;19.90;;;;;;;;;;5080359;28;20181;-72
2020/12/06 03:53:12;;;;;;;27.42;20.77;;;;;;;;;;5078428;28;20221;-72
2020/12/06 03:55:37;;;;;;;25.67;20.23;;;;;;;;;;5079611;28;20176;-71
2020/12/06 03:58:02;;;;;;;25.80;20.90;;;;;;;;;;5079963;28;20577;-70
2020/12/06 04:00:28;;;;;;;26.30;20.10;;;;;;;;;;5079555;28;20172;-72
2020/12/06 04:02:53;;;;;;;25.03;19.87;;;;;;;;;;5079790;28;20168;-72
2020/12/06 04:05:21;;;;;;;25.30;20.92;;;;;;;;;;5076965;28;20271;-72
2020/12/06 04:07:50;;;;;;;26.80;21.70;;;;;;;;;;5059683;28;20530;-72
2020/12/06 04:10:15;;;;;;;28.73;21.47;;;;;;;;;;5059314;28;20514;-73
2020/12/06 04:12:41;;;;;;;29.07;22.07;;;;;;;;;;5059499;28;20424;-74
2020/12/06 04:15:06;;;;;;;27.57;22.60;;;;;;;;;;5059178;28;20227;-73
2020/12/06 04:17:31;;;;;;;24.97;19.60;;;;;;;;;;5059459;28;20211;-71
2020/12/06 04:19:56;;;;;;;26.53;20.90;;;;;;;;;;5059552;28;20153;-70
2020/12/06 04:22:21;;;;;;;25.10;21.00;;;;;;;;;;5058529;28;20477;-72
2020/12/06 04:24:47;;;;;;;29.43;21.73;;;;;;;;;;5059057;28;20169;-72
2020/12/06 04:27:12;;;;;;;29.60;22.53;;;;;;;;;;5052752;28;20559;-72
2020/12/06 04:29:37;;;;;;;27.15;21.50;;;;;;;;;;5038917;28;20202;-71
2020/12/06 04:32:02;;;;;;;29.45;22.55;;;;;;;;;;5038762;28;20197;-71
2020/12/06 04:34:27;;;;;;;29.80;23.23;;;;;;;;;;5039331;28;20242;-70
2020/12/06 04:39:55;;;;;;;29.87;22.50;;;;;;;;;;5080526;28;20210;-70
2020/12/06 04:42:20;;;;;;;27.08;21.63;;;;;;;;;;5081461;28;20404;-71
2020/12/06 04:44:46;;;;;;;32.17;22.63;;;;;;;;;;5081169;28;20244;-70
2020/12/06 04:47:14;;;;;;;28.37;22.53;;;;;;;;;;5079526;28;20178;-70
2020/12/06 04:49:44;;;;;;;31.40;23.03;;;;;;;;;;5078370;28;20249;-71
2020/12/06 04:52:12;;;;;;;31.10;24.20;;;;;;;;;;5078626;28;20400;-71
2020/12/06 04:54:39;;;;;;;31.70;22.83;;;;;;;;;;5078704;28;20451;-71
2020/12/06 04:57:04;;;;;;;29.63;23.97;;;;;;;;;;5078682;28;20806;-70
2020/12/06 04:59:30;;;;;;;35.73;24.90;;;;;;;;;;5078296;28;20457;-70
2020/12/06 05:01:57;;;;;;;28.60;22.87;;;;;;;;;;5078418;28;20188;-68
2020/12/06 05:04:23;;;;;;;33.50;23.00;;;;;;;;;;5077618;28;20391;-69
2020/12/06 05:06:48;;;;;;;32.77;23.70;;;;;;;;;;5063342;28;20454;-71
2020/12/06 05:09:14;;;;;;;31.17;23.97;;;;;;;;;;5057997;28;20786;-71
2020/12/06 05:11:40;;;;;;;33.00;24.80;;;;;;;;;;5058266;28;20188;-70
2020/12/06 05:14:06;;;;;;;29.60;22.10;;;;;;;;;;5058638;28;20389;-70
2020/12/06 05:16:32;;;;;;;29.53;22.40;;;;;;;;;;5057994;28;20244;-70
2020/12/06 05:18:57;;;;;;;29.80;22.30;;;;;;;;;;5057740;28;20162;-72
2020/12/06 05:21:36;;;;;;;30.10;21.80;;;;;;;;;;5058420;28;20635;-72
2020/12/06 05:24:02;;;;;;;30.00;22.90;;;;;;;;;;5058263;28;20220;-73
2020/12/06 05:26:27;;;;;;;30.57;22.20;;;;;;;;;;5057757;28;20400;-71
2020/12/06 05:28:53;;;;;;;27.70;21.30;;;;;;;;;;5037643;28;20244;-72
2020/12/06 05:31:18;;;;;;;31.03;22.03;;;;;;;;;;5038131;28;20161;-72
2020/12/06 05:33:43;;;;;;;29.47;22.97;;;;;;;;;;5038405;28;20233;-71
2020/12/06 05:36:10;;;;;;;27.70;22.40;;;;;;;;;;5047802;28;20178;-70
2020/12/06 05:38:35;;;;;;;31.40;23.10;;;;;;;;;;5057576;28;20170;-72
2020/12/06 05:41:01;;;;;;;26.27;20.73;;;;;;;;;;5057962;28;20641;-73
2020/12/06 05:43:27;;;;;;;30.60;23.65;;;;;;;;;;5057265;28;20176;-72
2020/12/06 05:46:05;;;;;;;26.83;21.07;;;;;;;;;;5057522;28;20165;-71
2020/12/06 06:25:14;;;;;;;23.57;20.53;;;;;;;5.18;71.20;99974.91;5042658;27;60105;-70
2020/12/06 06:27:40;;;;;;;23.73;21.10;;;;;;;5.02;73.90;99969.47;5069762;28;20789;-71
2020/12/06 06:30:07;;;;;;;25.70;22.67;;;;;;;4.94;74.14;99978.78;5054792;28;20176;-72
2020/12/06 06:32:32;;;;;;;26.17;22.90;;;;;;;4.52;75.51;99971.88;5070339;28;20439;-72
2020/12/06 06:34:59;;;;;;;28.93;23.20;;;;;;;4.51;76.61;99965.81;5053784;28;20419;-69
2020/12/06 06:37:28;;;;;;;28.53;22.43;;;;;;;4.67;76.55;99961.88;5043965;28;20310;-68
2020/12/06 06:39:57;;;;;;;28.87;22.33;;;;;;;4.34;77.76;99967.16;5034153;28;20424;-70
2020/12/06 06:42:25;;;;;;;29.40;22.60;;;;;;;4.44;78.31;99968.22;5034267;28;20448;-69
2020/12/06 06:44:56;;;;;;;29.47;22.93;;;;;;;4.45;78.15;99965.72;5032925;28;20795;-69
2020/12/06 06:47:21;;;;;;;29.60;23.30;;;;;;;4.47;78.34;99963.16;5033160;28;20845;-71
2020/12/06 06:49:55;;;;;;;29.23;22.90;;;;;;;4.56;78.30;99958.19;5033774;28;20421;-70
2020/12/06 06:52:22;;;;;;;32.87;24.57;;;;;;;4.43;79.06;99958.78;5034079;28;20166;-69
2020/12/06 06:54:49;;;;;;;33.10;24.83;;;;;;;4.44;79.30;99960.47;5034210;28;20424;-70
2020/12/06 06:57:15;;;;;;;31.43;24.97;;;;;;;4.46;79.58;99957.09;5034102;28;20435;-69
2020/12/06 06:59:45;;;;;;;29.23;23.70;;;;;;;4.41;80.21;99958.75;5033851;28;20799;-68
2020/12/06 07:02:21;;;;;;;30.87;24.43;;;;;;;4.58;79.94;99972.00;5033492;28;20421;-70
2020/12/06 07:04:47;;;;;;;32.83;24.73;;;;;;;4.63;79.72;99966.94;5031909;28;20578;-69
2020/12/06 07:07:13;;;;;;;35.17;24.83;;;;;;;4.33;80.93;99963.72;5033875;28;20441;-70
2020/12/06 07:09:38;;;;;;;30.90;25.33;;;;;;;4.46;81.61;99956.25;5032559;28;20441;-69
2020/12/06 07:12:04;;;;;;;31.60;24.10;;;;;;;4.45;81.13;99964.81;5033832;28;20513;-70
2020/12/06 07:14:29;;;;;;;36.27;24.20;;;;;;;4.37;82.05;99967.22;5047147;28;20252;-69
2020/12/06 07:16:58;;;;;;;31.43;23.40;;;;;;;4.33;82.17;99966.31;5041087;28;20226;-70
2020/12/06 07:19:24;;;;;;;33.60;25.00;;;;;;;4.42;82.46;99962.19;5013734;28;20163;-70
2020/12/06 07:21:50;;;;;;;36.90;25.57;;;;;;;4.35;82.60;99956.88;5014300;28;20421;-71
2020/12/06 07:24:16;;;;;;;36.90;26.03;;;;;;;4.37;82.66;99962.94;5013643;28;20242;-70
2020/12/06 07:26:42;;;;;;;38.77;28.83;;;;;;;4.63;82.48;99948.88;5013872;28;20476;-69
2020/12/06 07:29:08;;;;;;;35.57;25.90;;;;;;;4.45;82.28;99946.75;5014029;28;20764;-70
2020/12/06 07:31:33;;;;;;;33.67;25.17;;;;;;;4.49;83.33;99944.28;5013805;28;20477;-69
2020/12/06 07:34:00;;;;;;;36.70;26.93;;;;;;;4.56;82.72;99955.63;5013526;28;20179;-71
2020/12/06 07:36:38;;;;;;;36.97;26.87;;;;;;;4.67;81.94;99943.78;5002128;28;20588;-69
2020/12/06 07:39:16;;;;;;;36.70;26.33;;;;;;;4.52;82.23;99940.91;5000578;28;20430;-68
2020/12/06 07:41:46;;;;;;;34.07;26.10;;;;;;;4.53;82.97;99940.03;5000522;28;20423;-68
2020/12/06 07:44:11;;;;;;;35.73;26.00;;;;;;;4.61;82.59;99935.06;5000259;28;20469;-68
2020/12/06 07:46:38;;;;;;;34.57;25.80;;;;;;;4.69;82.49;99928.34;5000381;28;20683;-68
2020/12/06 07:49:03;;;;;;;36.43;27.47;;;;;;;4.64;82.86;99925.66;5000447;28;20172;-69
2020/12/06 07:51:28;;;;;;;37.50;26.70;;;;;;;4.40;82.78;99936.34;5000332;28;20423;-69
2020/12/06 07:53:54;;;;;;;35.00;25.90;;;;;;;4.52;83.04;99940.91;5000403;28;20275;-68
2020/12/06 07:56:24;;;;;;;36.30;26.93;;;;;;;4.58;82.80;99935.84;5000500;28;20172;-69
2020/12/06 07:59:07;;;;;;;38.00;28.03;;;;;;;4.53;82.96;99945.22;4999950;28;20203;-69
2020/12/06 08:01:33;;;;;;;36.97;25.93;;;;;;;4.72;82.93;99955.09;5000147;28;20426;-69
2020/12/06 08:03:59;;;;;;;39.40;29.63;;;;;;;4.70;83.24;99961.06;4999972;28;20466;-68
2020/12/06 08:06:26;;;;;;;35.33;27.57;;;;;;;4.75;82.56;99950.81;4999439;28;20176;-68
2020/12/06 08:08:55;;;;;;;40.07;28.60;;;;;;;4.73;82.77;99940.47;4999352;28;20425;-68
2020/12/06 08:11:30;;;;;;;35.40;26.37;;;;;;;4.75;82.46;99943.97;4999934;28;20437;-68
2020/12/06 08:13:55;;;;;;;38.47;27.03;;;;;;;4.74;82.83;99937.03;4999892;28;20426;-69
2020/12/06 08:16:20;;;;;;;33.33;26.03;;;;;;;4.62;82.95;99916.16;4999112;28;20442;-68
2020/12/06 08:18:57;;;;;;;34.93;25.23;;;;;;;4.64;83.09;99917.03;4999752;28;20447;-69
2020/12/06 08:21:22;;;;;;;35.37;26.30;;;;;;;4.61;82.77;99925.59;4999652;28;20250;-69
2020/12/06 08:23:47;;;;;;;36.17;26.00;;;;;;;4.67;83.21;99920.56;4999472;28;20490;-69
2020/12/06 08:26:12;;;;;;;36.43;25.30;;;;;;;4.72;83.06;99931.84;4999924;28;20198;-68
2020/12/06 08:28:38;;;;;;;36.13;26.63;;;;;;;4.75;83.38;99932.75;4999501;28;20167;-68
2020/12/06 08:31:19;;;;;;;35.27;26.40;;;;;;;4.75;83.77;99922.41;4999675;28;20194;-69
2020/12/06 08:33:44;;;;;;;35.73;26.60;;;;;;;4.85;83.06;99932.94;4998847;28;20548;-69
2020/12/06 08:36:09;;;;;;;34.43;26.73;;;;;;;4.70;83.46;99930.94;4999247;28;20423;-68
2020/12/06 08:38:37;;;;;;;38.70;27.50;;;;;;;4.84;82.74;99943.25;4998786;28;20180;-69
2020/12/06 08:41:10;;;;;;;33.97;26.30;;;;;;;4.96;81.67;99938.34;4999265;28;20434;-69
2020/12/06 08:43:56;;;;;;;36.43;26.70;;;;;;;4.82;82.94;99920.00;4998430;28;20473;-69
2020/12/06 08:46:24;;;;;;;40.97;26.20;;;;;;;5.03;82.73;99904.03;4997766;28;20480;-69
2020/12/06 08:48:51;;;;;;;33.77;24.73;;;;;;;4.93;82.83;99898.69;4998467;28;20858;-69
2020/12/06 08:51:49;;;;;;;38.30;26.60;;;;;;;5.03;82.71;99883.38;4998962;28;20422;-68
2020/12/06 08:54:15;;;;;;;33.60;24.90;;;;;;;4.74;83.44;99876.81;4998935;28;20820;-69
2020/12/06 08:56:44;;;;;;;38.73;25.40;;;;;;;4.78;84.02;99869.13;4997803;28;20433;-69
2020/12/06 08:59:14;;;;;;;39.33;28.40;;;;;;;4.93;83.78;99868.53;4997810;28;20882;-69
2020/12/06 09:01:48;;;;;;;37.30;26.50;;;;;;;5.17;82.52;99856.91;4999178;28;20453;-69
2020/12/06 09:04:14;;;;;;;36.30;25.37;;;;;;;5.22;82.88;99863.91;4998812;28;20458;-69
2020/12/06 09:06:40;;;;;;;36.93;26.63;;;;;;;5.18;82.69;99863.81;4998733;28;20691;-69
2020/12/06 09:09:06;;;;;;;34.57;26.10;;;;;;;5.02;83.17;99870.41;4997790;28;20427;-69
2020/12/06 09:11:31;;;;;;;32.47;25.47;;;;;;;5.04;83.53;99859.25;4998674;28;20175;-69
2020/12/06 09:13:57;;;;;;;35.97;25.43;;;;;;;5.10;83.36;99867.97;4998712;28;20419;-69
2020/12/06 09:16:22;;;;;;;32.93;25.20;;;;;;;5.17;83.01;99875.00;4998528;28;20183;-68
2020/12/06 09:18:47;;;;;;;36.47;26.30;;;;;;;4.97;83.07;99874.66;4998392;28;20186;-69
2020/12/06 09:21:12;;;;;;;31.83;25.13;;;;;;;5.05;83.45;99867.91;4998864;28;20182;-69
2020/12/06 09:23:38;;;;;;;35.23;26.37;;;;;;;5.10;83.38;99862.81;4998165;28;20227;-69
2020/12/06 09:26:04;;;;;;;36.20;26.90;;;;;;;5.12;83.44;99866.31;4998424;28;20211;-68
2020/12/06 09:28:30;;;;;;;30.90;25.70;;;;;;;4.94;84.33;99869.41;4998452;28;20203;-68
2020/12/06 09:30:55;;;;;;;35.97;26.27;;;;;;;4.85;84.83;99877.88;4998239;28;20828;-70
2020/12/06 09:33:21;;;;;;;34.13;24.73;;;;;;;4.60;85.73;99873.94;4998396;28;20199;-68
2020/12/06 09:35:47;;;;;;;32.50;24.77;;;;;;;4.72;85.95;99862.16;4998484;28;20176;-69
2020/12/06 09:38:13;;;;;;;37.83;25.53;;;;;;;4.88;85.70;99854.66;4998135;28;20176;-68
2020/12/06 09:40:39;;;;;;;33.50;25.00;;;;;;;4.65;85.88;99847.34;4998010;28;20706;-69
2020/12/06 09:43:04;;;;;;;36.77;26.70;;;;;;;4.79;86.22;99833.84;4998266;28;20429;-68
2020/12/06 09:45:29;;;;;;;33.23;24.17;;;;;;;5.17;84.33;99810.41;4998110;28;20440;-68
2020/12/06 09:47:55;;;;;;;33.33;25.27;;;;;;;4.90;85.02;99814.25;4998126;28;20182;-68
2020/12/06 09:50:20;;;;;;;34.07;24.90;;;;;;;4.91;84.84;99807.38;4998379;28;20190;-69
2020/12/06 09:52:45;;;;;;;31.67;23.83;;;;;;;4.79;86.04;99806.31;4997963;28;20179;-68
2020/12/06 09:55:10;;;;;;;33.97;25.63;;;;;;;5.13;85.00;99796.56;4998162;28;20168;-69
2020/12/06 09:57:36;;;;;;;36.20;25.40;;;;;;;4.94;85.41;99799.66;4998273;28;20186;-68
2020/12/06 10:00:01;;;;;;;33.70;25.73;;;;;;;5.09;85.16;99819.72;4997491;28;20191;-68
2020/12/06 10:02:26;;;;;;;38.43;26.10;;;;;;;5.04;84.77;99814.50;4997782;28;20199;-70
2020/12/06 10:04:52;;;;;;;36.40;25.47;;;;;;;5.06;84.76;99815.41;4998228;28;20448;-69
2020/12/06 10:07:20;;;;;;;34.57;26.70;;;;;;;5.28;84.02;99814.03;4997956;28;20176;-69
2020/12/06 10:09:46;;;;;;;33.00;25.30;;;;;;;5.34;82.91;99821.88;4997818;28;20179;-69
2020/12/06 10:12:11;;;;;;;32.40;25.00;;;;;;;5.17;83.77;99829.34;4998096;28;20692;-69
2020/12/06 10:14:36;;;;;;;33.90;25.47;;;;;;;5.34;83.84;99827.03;4997729;28;20176;-69
2020/12/06 10:17:02;;;;;;;33.90;26.57;;;;;;;5.36;83.70;99825.34;4997623;28;20171;-69
2020/12/06 10:19:27;;;;;;;38.10;26.20;;;;;;;5.31;83.25;99818.38;4998067;28;20180;-69
2020/12/06 10:21:52;;;;;;;32.90;25.07;;;;;;;5.64;83.19;99820.63;4997532;28;20202;-69
2020/12/06 10:24:17;;;;;;;32.67;24.40;;;;;;;5.36;82.88;99806.41;4997301;28;20314;-67
2020/12/06 10:26:43;;;;;;;36.10;25.07;;;;;;;5.29;83.94;99805.44;4997948;28;20183;-68
2020/12/06 10:29:08;;;;;;;39.53;26.23;;;;;;;5.35;83.86;99799.50;4997443;28;20259;-68
2020/12/06 10:31:33;;;;;;;34.43;25.70;;;;;;;5.22;83.69;99813.91;4997551;28;20190;-68
2020/12/06 10:33:59;;;;;;;34.43;24.63;;;;;;;5.24;83.09;99820.00;4997955;28;20310;-68
2020/12/06 10:36:24;;;;;;;35.30;27.37;;;;;;;5.40;82.61;99816.81;4997590;28;20175;-69
2020/12/06 10:38:50;;;;;;;38.47;27.23;;;;;;;5.60;82.74;99823.13;4997331;28;20180;-70
2020/12/06 10:41:15;;;;;;;38.60;25.97;;;;;;;5.64;81.82;99823.22;4998125;28;20448;-69
2020/12/06 10:43:40;;;;;;;37.03;25.70;;;;;;;5.53;81.90;99817.00;4997183;28;20227;-67
2020/12/06 10:46:05;;;;;;;33.47;24.33;;;;;;;5.53;81.88;99817.00;4997429;28;20172;-70
2020/12/06 10:48:31;;;;;;;38.50;25.47;;;;;;;5.37;81.62;99813.28;4997637;28;20200;-68
2020/12/06 10:50:56;;;;;;;37.93;27.50;;;;;;;5.24;81.95;99817.41;4997331;28;20537;-69
2020/12/06 10:53:21;;;;;;;39.40;26.23;;;;;;;5.28;82.29;99816.63;4997350;28;20226;-68
2020/12/06 10:55:47;;;;;;;38.93;26.00;;;;;;;5.16;82.37;99817.28;4997667;28;20203;-68
2020/12/06 10:58:12;;;;;;;34.43;25.83;;;;;;;5.15;82.48;99830.19;4997203;28;20191;-69
2020/12/06 11:00:38;;;;;;;39.97;26.50;;;;;;;5.13;82.03;99816.34;4997273;28;20274;-69
2020/12/06 11:03:03;;;;;;;37.70;27.50;;;;;;;5.17;82.45;99813.84;4997656;28;20497;-69
2020/12/06 11:05:28;;;;;;;35.47;26.90;;;;;;;5.22;82.05;99814.81;4997192;28;20175;-69
2020/12/06 11:07:54;;;;;;;35.60;26.50;;;;;;;5.26;81.78;99807.09;4997214;28;20203;-69
2020/12/06 11:10:19;;;;;;;36.70;27.40;;;;;;;5.21;81.47;99799.28;4998376;28;20203;-69
2020/12/06 11:12:44;;;;;;;35.00;27.40;;;;;;;5.31;82.22;99795.97;5000844;28;20179;-69
2020/12/06 11:15:10;;;;;;;37.70;28.10;;;;;;;5.43;81.10;99790.13;5001145;28;20560;-68
2020/12/06 11:17:35;;;;;;;36.20;26.00;;;;;;;5.36;81.09;99783.16;5001381;28;20179;-69
2020/12/06 11:20:00;;;;;;;37.47;26.17;;;;;;;5.33;81.63;99778.81;5000789;28;20179;-69
2020/12/06 11:22:26;;;;;;;32.63;26.10;;;;;;;5.33;81.80;99773.63;5000940;28;20248;-68
2020/12/06 11:24:52;;;;;;;37.00;26.30;;;;;;;5.39;81.04;99767.69;5000730;28;20538;-67
2020/12/06 11:27:17;;;;;;;35.97;26.10;;;;;;;5.23;81.81;99770.00;5000594;28;20267;-69
2020/12/06 11:29:43;;;;;;;38.33;27.67;;;;;;;5.14;81.47;99756.09;5001006;28;20442;-68
2020/12/06 11:32:08;;;;;;;34.90;26.60;;;;;;;5.25;81.62;99758.84;5000547;28;20187;-70
2020/12/06 11:34:33;;;;;;;36.50;26.40;;;;;;;5.27;81.20;99757.16;5000654;28;20191;-68
2020/12/06 11:36:59;;;;;;;38.47;29.20;;;;;;;5.13;82.15;99760.41;5001159;28;20171;-68
2020/12/06 11:39:24;;;;;;;35.00;26.63;;;;;;;5.23;82.05;99766.56;5000261;28;20591;-69
2020/12/06 11:41:54;;;;;;;36.47;26.60;;;;;;;5.25;81.08;99764.91;5000512;28;20233;-68
2020/12/06 11:44:19;;;;;;;41.90;27.70;;;;;;;5.42;81.34;99772.03;5000706;28;20200;-70
2020/12/06 11:46:46;;;;;;;36.57;27.37;;;;;;;5.14;81.57;99769.91;5000585;28;20768;-69
2020/12/06 11:49:11;;;;;;;37.07;28.00;;;;;;;5.30;81.15;99770.13;4999591;28;20172;-69
2020/12/06 11:51:37;;;;;;;38.57;28.77;;;;;;;5.30;81.57;99763.22;5000642;28;20411;-69
2020/12/06 11:54:02;;;;;;;35.57;27.90;;;;;;;5.21;81.66;99745.03;5000197;28;20509;-69
2020/12/06 11:56:27;;;;;;;35.83;27.20;;;;;;;5.27;81.54;99737.34;5000087;28;20255;-68
2020/12/06 11:58:53;;;;;;;38.30;27.60;;;;;;;5.13;82.29;99725.91;5000609;28;20188;-68
2020/12/06 12:01:18;;;;;;;37.03;27.97;;;;;;;5.16;82.11;99708.75;5000210;28;20191;-68
2020/12/06 12:03:43;;;;;;;39.93;28.50;;;;;;;5.16;82.26;99702.75;5000120;28;20564;-69
2020/12/06 12:06:08;;;;;;;37.70;27.73;;;;;;;5.27;81.78;99690.84;5000358;28;20175;-69
2020/12/06 12:08:34;;;;;;;42.47;28.47;;;;;;;5.17;82.31;99676.06;5000111;28;20180;-68
2020/12/06 12:11:01;;;;;;;39.73;29.10;;;;;;;5.42;81.92;99700.50;4999958;28;20184;-70
2020/12/06 12:13:29;;;;;;;39.17;29.57;;;;;;;5.24;81.82;99701.13;5000447;28;20530;-71
2020/12/06 12:15:54;;;;;;;35.70;25.63;;;;;;;5.16;81.19;99707.91;5000044;28;20419;-69
2020/12/06 12:18:19;;;;;;;42.63;29.20;;;;;;;5.14;82.05;99694.09;4999878;28;20841;-69
2020/12/06 12:20:45;;;;;;;41.47;29.80;;;;;;;5.25;81.57;99691.66;5000232;28;20199;-70
2020/12/06 12:23:10;;;;;;;36.90;28.10;;;;;;;5.17;81.23;99694.16;4999671;28;20281;-71
2020/12/06 12:25:37;;;;;;;40.73;28.87;;;;;;;5.16;81.42;99690.69;4999691;28;20191;-70
2020/12/06 12:28:02;;;;;;;36.17;26.97;;;;;;;5.12;81.62;99690.63;5000225;28;20168;-70
2020/12/06 12:30:28;;;;;;;38.03;28.77;;;;;;;5.13;81.50;99676.84;4999578;28;20793;-70
2020/12/06 12:32:53;;;;;;;41.57;30.60;;;;;;;5.11;81.82;99678.53;4999655;28;20496;-70
2020/12/06 12:35:18;;;;;;;39.60;28.80;;;;;;;5.20;81.48;99673.50;4999766;28;20163;-69
2020/12/06 12:37:43;;;;;;;36.77;28.10;;;;;;;5.15;81.58;99675.16;4999641;28;20179;-70
2020/12/06 12:40:09;;;;;;;37.10;27.63;;;;;;;4.98;81.75;99674.91;4999327;28;20434;-70
2020/12/06 12:42:34;;;;;;;36.23;26.67;;;;;;;5.00;82.19;99656.00;4999715;28;20467;-70
2020/12/06 12:44:59;;;;;;;40.00;27.90;;;;;;;4.99;81.65;99653.41;4999473;28;20244;-70
2020/12/06 12:47:25;;;;;;;36.60;27.60;;;;;;;5.02;82.20;99650.84;4999275;28;20187;-69
2020/12/06 12:49:50;;;;;;;40.13;27.30;;;;;;;5.14;82.13;99648.47;4999465;28;20179;-70
2020/12/06 12:52:17;;;;;;;39.17;29.20;;;;;;;5.19;81.92;99653.69;4999247;28;20193;-70
2020/12/06 12:54:43;;;;;;;38.60;28.17;;;;;;;5.06;81.73;99645.75;4999352;28;20175;-70
2020/12/06 12:57:08;;;;;;;39.60;27.30;;;;;;;5.04;81.71;99634.53;4999730;28;20418;-69
2020/12/06 12:59:33;;;;;;;37.40;28.50;;;;;;;5.08;82.00;99647.50;4998892;28;20202;-70
2020/12/06 13:02:01;;;;;;;40.07;29.93;;;;;;;5.12;81.54;99654.44;4999187;28;20191;-69
2020/12/06 13:04:27;;;;;;;39.60;28.17;;;;;;;4.92;81.94;99642.09;4999224;28;20491;-70
2020/12/06 13:06:52;;;;;;;39.70;29.13;;;;;;;4.90;82.46;99648.97;4999048;28;20426;-70
2020/12/06 13:09:17;;;;;;;39.53;29.37;;;;;;;5.04;82.94;99646.59;4998742;28;20179;-69
2020/12/06 13:11:43;;;;;;;39.93;29.10;;;;;;;4.91;82.50;99642.09;4999252;28;20168;-70
2020/12/06 13:14:08;;;;;;;40.83;30.63;;;;;;;5.04;82.01;99636.25;4998862;28;20258;-70
2020/12/06 13:16:34;;;;;;;38.10;27.53;;;;;;;5.21;81.41;99639.09;4998689;28;20179;-70
2020/12/06 13:18:59;;;;;;;38.70;28.93;;;;;;;4.95;82.44;99646.44;4998895;28;20180;-69
2020/12/06 13:21:24;;;;;;;40.83;28.40;;;;;;;5.00;81.90;99643.09;4998523;28;20175;-70
2020/12/06 13:23:50;;;;;;;42.77;29.57;;;;;;;4.93;82.40;99641.25;4998325;28;20484;-70
2020/12/06 13:26:16;;;;;;;39.77;27.60;;;;;;;5.00;81.86;99648.25;4998930;28;20214;-72
2020/12/06 13:28:42;;;;;;;42.20;29.93;;;;;;;5.00;82.33;99653.41;4998246;28;20175;-70
2020/12/06 13:31:07;;;;;;;38.57;27.73;;;;;;;5.10;81.96;99659.59;4998451;28;20753;-69
2020/12/06 13:33:34;;;;;;;23.17;17.80;;;;;;;9.16;79.73;99639.59;4998113;28;20176;-65
2020/12/06 13:35:59;;;;;;;33.10;24.27;;;;;;;9.08;72.31;99634.44;4998130;28;20441;-63
2020/12/06 13:38:24;;;;;;;34.60;26.57;;;;;;;6.07;77.17;99647.91;4997950;28;20434;-69
2020/12/06 13:40:50;;;;;;;38.40;26.90;;;;;;;5.47;79.47;99656.66;4998506;28;20179;-72
2020/12/06 13:43:15;;;;;;;40.20;29.67;;;;;;;5.47;80.73;99652.34;5014124;28;20563;-71
2020/12/06 13:45:41;;;;;;;37.00;28.00;;;;;;;5.17;80.79;99648.50;5037296;28;20210;-70
2020/12/06 13:48:06;;;;;;;44.87;28.80;;;;;;;5.21;81.26;99654.59;5037834;28;20523;-72
2020/12/06 13:50:31;;;;;;;39.30;27.50;;;;;;;4.93;81.93;99664.50;5036996;28;20189;-72
2020/12/06 13:52:56;;;;;;;39.10;30.30;;;;;;;5.10;82.22;99676.81;5037000;28;20210;-72
2020/12/06 13:55:22;;;;;;;37.90;28.83;;;;;;;4.98;81.78;99683.53;5030239;28;20547;-71
2020/12/06 13:57:47;;;;;;;37.90;28.60;;;;;;;4.96;82.57;99680.03;5020350;28;20193;-71
2020/12/06 14:00:12;;;;;;;44.33;30.43;;;;;;;5.22;82.02;99688.19;5036916;28;20583;-72
2020/12/06 14:02:38;;;;;;;39.37;28.60;;;;;;;5.18;81.37;99693.28;5037499;28;20220;-70
2020/12/06 14:05:03;;;;;;;35.83;28.67;;;;;;;5.04;81.67;99693.94;5036992;28;20288;-71
2020/12/06 14:07:31;;;;;;;39.83;29.67;;;;;;;4.89;82.46;99683.38;5037013;28;20208;-70
2020/12/06 14:09:57;;;;;;;40.43;29.53;;;;;;;4.89;82.77;99662.72;5037441;28;20823;-71
2020/12/06 14:12:22;;;;;;;40.90;30.30;;;;;;;4.86;82.57;99665.28;5019690;28;20505;-71
2020/12/06 14:14:47;;;;;;;39.00;28.03;;;;;;;5.02;82.24;99667.22;5017306;28;20206;-68
2020/12/06 14:17:13;;;;;;;42.70;30.73;;;;;;;4.99;81.80;99677.53;5034325;28;20188;-74
2020/12/06 14:19:39;;;;;;;41.70;28.23;;;;;;;4.97;82.55;99684.38;5037053;28;20482;-73
2020/12/06 14:22:04;;;;;;;40.63;30.37;;;;;;;4.85;82.50;99682.47;5037091;28;20444;-72
2020/12/06 14:24:29;;;;;;;43.50;29.73;;;;;;;5.00;82.81;99691.31;5036640;28;20230;-74
2020/12/06 14:26:55;;;;;;;42.77;30.87;;;;;;;5.15;82.17;99695.81;5037205;28;20185;-73
2020/12/06 14:29:20;;;;;;;38.73;29.20;;;;;;;4.86;82.85;99698.84;5036945;28;20243;-73
2020/12/06 14:31:46;;;;;;;38.83;27.47;;;;;;;5.00;82.12;99705.06;5037205;28;20447;-74
2020/12/06 14:34:12;;;;;;;38.47;29.57;;;;;;;4.84;82.98;99700.50;5037047;28;20175;-75
2020/12/06 14:36:38;;;;;;;42.67;29.80;;;;;;;4.66;83.67;99686.47;5037413;28;20177;-72
2020/12/06 14:39:04;;;;;;;38.67;29.00;;;;;;;4.71;84.04;99695.16;5036875;28;20539;-73
2020/12/06 14:41:29;;;;;;;39.33;28.37;;;;;;;4.91;83.05;99697.19;5028441;28;20231;-73
2020/12/06 14:43:55;;;;;;;41.07;30.47;;;;;;;4.99;82.90;99703.34;5017630;28;20797;-73
2020/12/06 14:46:20;;;;;;;42.00;29.20;;;;;;;4.76;83.08;99690.06;5019713;28;20183;-70
2020/12/06 14:48:45;;;;;;;38.37;28.97;;;;;;;4.75;82.71;99692.63;5020996;28;20179;-72
2020/12/06 14:51:10;;;;;;;41.67;29.60;;;;;;;4.76;82.89;99694.38;5021392;28;20186;-71
2020/12/06 14:53:36;;;;;;;38.27;28.37;;;;;;;4.80;82.95;99689.25;5020918;28;20525;-71
2020/12/06 14:56:02;;;;;;;38.13;27.53;;;;;;;4.79;83.67;99682.38;5020960;28;20535;-71
2020/12/06 14:58:27;;;;;;;42.73;30.53;;;;;;;4.96;83.25;99676.59;5021039;28;20182;-71